sensor_id;sensor_type;location;lat;lon;timestamp;pressure;altitude;pressure_sealevel;temperature
74536;BMP180;63013;51.104;-115.370;2023-05-10T00:01:07;86942.00;;;21.30
74536;BMP180;63013;51.104;-115.370;2023-05-10T00:03:34;86938.40;;;21.30
74536;BMP180;63013;51.104;-115.370;2023-05-10T00:06:01;86935.60;;;21.30
74536;BMP180;63013;51.104;-115.370;2023-05-10T00:08:28;86935.60;;;21.30
74536;BMP180;63013;51.104;-115.370;2023-05-10T00:10:55;86934.20;;;21.30
74536;BMP180;63013;51.104;-115.370;2023-05-10T00:13:22;86935.00;;;21.30
74536;BMP180;63013;51.104;-115.370;2023-05-10T00:15:49;86934.60;;;21.30
74536;BMP180;63013;51.104;-115.370;2023-05-10T00:18:16;86936.60;;;21.30
74536;BMP180;63013;51.104;-115.370;2023-05-10T00:20:43;86939.00;;;21.32
74536;BMP180;63013;51.104;-115.370;2023-05-10T00:23:12;86937.80;;;21.36
74536;BMP180;63013;51.104;-115.370;2023-05-10T00:25:39;86940.00;;;21.40
74536;BMP180;63013;51.104;-115.370;2023-05-10T00:28:06;86942.60;;;21.40
74536;BMP180;63013;51.104;-115.370;2023-05-10T00:30:34;86940.20;;;21.40
74536;BMP180;63013;51.104;-115.370;2023-05-10T00:33:01;86944.60;;;21.40
74536;BMP180;63013;51.104;-115.370;2023-05-10T00:35:28;86938.00;;;21.40
74536;BMP180;63013;51.104;-115.370;2023-05-10T00:37:55;86935.00;;;21.40
74536;BMP180;63013;51.104;-115.370;2023-05-10T00:40:22;86932.60;;;21.40
74536;BMP180;63013;51.104;-115.370;2023-05-10T00:42:49;86925.80;;;21.40
74536;BMP180;63013;51.104;-115.370;2023-05-10T00:45:17;86927.80;;;21.40
74536;BMP180;63013;51.104;-115.370;2023-05-10T00:47:44;86928.80;;;21.40
74536;BMP180;63013;51.104;-115.370;2023-05-10T00:50:11;86923.40;;;21.40
74536;BMP180;63013;51.104;-115.370;2023-05-10T00:52:38;86924.20;;;21.40
74536;BMP180;63013;51.104;-115.370;2023-05-10T00:55:06;86924.00;;;21.40
74536;BMP180;63013;51.104;-115.370;2023-05-10T00:57:34;86922.20;;;21.40
74536;BMP180;63013;51.104;-115.370;2023-05-10T01:00:03;86918.80;;;21.40
74536;BMP180;63013;51.104;-115.370;2023-05-10T01:02:30;86920.80;;;21.40
74536;BMP180;63013;51.104;-115.370;2023-05-10T01:04:57;86923.20;;;21.40
74536;BMP180;63013;51.104;-115.370;2023-05-10T01:07:24;86923.60;;;21.40
74536;BMP180;63013;51.104;-115.370;2023-05-10T01:09:52;86925.60;;;21.40
74536;BMP180;63013;51.104;-115.370;2023-05-10T01:12:19;86930.00;;;21.40
74536;BMP180;63013;51.104;-115.370;2023-05-10T01:14:46;86933.20;;;21.40
74536;BMP180;63013;51.104;-115.370;2023-05-10T01:17:14;86930.80;;;21.40
74536;BMP180;63013;51.104;-115.370;2023-05-10T01:19:42;86926.40;;;21.40
74536;BMP180;63013;51.104;-115.370;2023-05-10T01:22:44;86930.60;;;21.40
74536;BMP180;63013;51.104;-115.370;2023-05-10T01:25:43;86933.00;;;21.40
74536;BMP180;63013;51.104;-115.370;2023-05-10T01:32:20;86934.00;;;21.40
74536;BMP180;63013;51.104;-115.370;2023-05-10T01:35:10;86937.00;;;21.40
74536;BMP180;63013;51.104;-115.370;2023-05-10T01:37:50;86942.00;;;21.40
74536;BMP180;63013;51.104;-115.370;2023-05-10T01:43:03;86939.20;;;21.40
74536;BMP180;63013;51.104;-115.370;2023-05-10T01:45:47;86938.20;;;21.40
74536;BMP180;63013;51.104;-115.370;2023-05-10T01:48:20;86936.40;;;21.40
74536;BMP180;63013;51.104;-115.370;2023-05-10T01:50:51;86938.00;;;21.40
74536;BMP180;63013;51.104;-115.370;2023-05-10T01:53:20;86942.80;;;21.42
74536;BMP180;63013;51.104;-115.370;2023-05-10T01:55:52;86947.40;;;21.40
74536;BMP180;63013;51.104;-115.370;2023-05-10T01:58:31;86949.00;;;21.40
74536;BMP180;63013;51.104;-115.370;2023-05-10T02:01:03;86952.20;;;21.40
74536;BMP180;63013;51.104;-115.370;2023-05-10T02:03:32;86953.00;;;21.40
74536;BMP180;63013;51.104;-115.370;2023-05-10T02:06:01;86962.00;;;21.42
74536;BMP180;63013;51.104;-115.370;2023-05-10T02:08:30;86968.00;;;21.42
74536;BMP180;63013;51.104;-115.370;2023-05-10T02:10:59;86974.20;;;21.46
74536;BMP180;63013;51.104;-115.370;2023-05-10T02:13:29;86979.40;;;21.46
74536;BMP180;63013;51.104;-115.370;2023-05-10T02:15:59;86981.40;;;21.42
74536;BMP180;63013;51.104;-115.370;2023-05-10T02:18:27;86987.40;;;21.46
74536;BMP180;63013;51.104;-115.370;2023-05-10T02:20:55;86987.80;;;21.40
74536;BMP180;63013;51.104;-115.370;2023-05-10T02:23:24;86997.40;;;21.40
74536;BMP180;63013;51.104;-115.370;2023-05-10T02:25:55;87000.40;;;21.40
74536;BMP180;63013;51.104;-115.370;2023-05-10T02:28:24;87006.20;;;21.40
74536;BMP180;63013;51.104;-115.370;2023-05-10T02:30:54;87015.60;;;21.40
74536;BMP180;63013;51.104;-115.370;2023-05-10T02:33:22;87019.60;;;21.40
74536;BMP180;63013;51.104;-115.370;2023-05-10T02:35:51;87020.60;;;21.40
74536;BMP180;63013;51.104;-115.370;2023-05-10T02:38:21;87023.80;;;21.40
74536;BMP180;63013;51.104;-115.370;2023-05-10T02:40:50;87032.00;;;21.40
74536;BMP180;63013;51.104;-115.370;2023-05-10T02:43:18;87034.40;;;21.40
74536;BMP180;63013;51.104;-115.370;2023-05-10T02:45:48;87038.00;;;21.40
74536;BMP180;63013;51.104;-115.370;2023-05-10T02:48:15;87039.20;;;21.40
74536;BMP180;63013;51.104;-115.370;2023-05-10T02:50:45;87037.20;;;21.40
74536;BMP180;63013;51.104;-115.370;2023-05-10T02:53:30;87045.40;;;21.40
74536;BMP180;63013;51.104;-115.370;2023-05-10T02:56:12;87046.20;;;21.40
74536;BMP180;63013;51.104;-115.370;2023-05-10T02:58:41;87050.20;;;21.40
74536;BMP180;63013;51.104;-115.370;2023-05-10T03:01:08;87054.60;;;21.40
74536;BMP180;63013;51.104;-115.370;2023-05-10T03:03:35;87052.40;;;21.40
74536;BMP180;63013;51.104;-115.370;2023-05-10T03:06:02;87053.80;;;21.40
74536;BMP180;63013;51.104;-115.370;2023-05-10T03:08:30;87054.80;;;21.40
74536;BMP180;63013;51.104;-115.370;2023-05-10T03:22:13;87074.80;;;21.36
74536;BMP180;63013;51.104;-115.370;2023-05-10T03:24:45;87078.40;;;21.30
74536;BMP180;63013;51.104;-115.370;2023-05-10T03:27:15;87080.40;;;21.30
74536;BMP180;63013;51.104;-115.370;2023-05-10T03:29:44;87085.00;;;21.30
74536;BMP180;63013;51.104;-115.370;2023-05-10T03:32:12;87087.80;;;21.30
74536;BMP180;63013;51.104;-115.370;2023-05-10T03:34:42;87093.40;;;21.30
74536;BMP180;63013;51.104;-115.370;2023-05-10T03:37:10;87098.00;;;21.30
74536;BMP180;63013;51.104;-115.370;2023-05-10T03:39:37;87101.20;;;21.30
74536;BMP180;63013;51.104;-115.370;2023-05-10T03:42:04;87101.00;;;21.30
74536;BMP180;63013;51.104;-115.370;2023-05-10T03:44:31;87102.40;;;21.30
74536;BMP180;63013;51.104;-115.370;2023-05-10T03:47:00;87110.40;;;21.30
74536;BMP180;63013;51.104;-115.370;2023-05-10T03:49:26;87106.40;;;21.30
74536;BMP180;63013;51.104;-115.370;2023-05-10T03:51:53;87112.60;;;21.30
74536;BMP180;63013;51.104;-115.370;2023-05-10T03:54:20;87112.80;;;21.30
74536;BMP180;63013;51.104;-115.370;2023-05-10T03:56:48;87114.60;;;21.30
74536;BMP180;63013;51.104;-115.370;2023-05-10T03:59:15;87114.40;;;21.30
74536;BMP180;63013;51.104;-115.370;2023-05-10T04:01:42;87116.00;;;21.30
74536;BMP180;63013;51.104;-115.370;2023-05-10T04:04:08;87120.60;;;21.30
74536;BMP180;63013;51.104;-115.370;2023-05-10T04:06:35;87122.00;;;21.30
74536;BMP180;63013;51.104;-115.370;2023-05-10T04:09:02;87118.20;;;21.30
74536;BMP180;63013;51.104;-115.370;2023-05-10T04:11:31;87117.40;;;21.30
74536;BMP180;63013;51.104;-115.370;2023-05-10T04:13:58;87120.40;;;21.30
74536;BMP180;63013;51.104;-115.370;2023-05-10T04:16:25;87116.00;;;21.30
74536;BMP180;63013;51.104;-115.370;2023-05-10T04:18:52;87116.00;;;21.30
74536;BMP180;63013;51.104;-115.370;2023-05-10T04:21:19;87114.00;;;21.30
74536;BMP180;63013;51.104;-115.370;2023-05-10T04:23:46;87113.80;;;21.40
74536;BMP180;63013;51.104;-115.370;2023-05-10T04:26:13;87115.00;;;21.40
74536;BMP180;63013;51.104;-115.370;2023-05-10T04:28:41;87112.40;;;21.40
74536;BMP180;63013;51.104;-115.370;2023-05-10T04:31:09;87110.80;;;21.40
74536;BMP180;63013;51.104;-115.370;2023-05-10T04:33:37;87109.80;;;21.42
74536;BMP180;63013;51.104;-115.370;2023-05-10T04:36:04;87110.20;;;21.50
74536;BMP180;63013;51.104;-115.370;2023-05-10T04:38:31;87111.00;;;21.50
74536;BMP180;63013;51.104;-115.370;2023-05-10T04:41:09;87113.40;;;21.50
74536;BMP180;63013;51.104;-115.370;2023-05-10T04:43:37;87111.20;;;21.50
74536;BMP180;63013;51.104;-115.370;2023-05-10T04:46:06;87113.60;;;21.50
74536;BMP180;63013;51.104;-115.370;2023-05-10T04:48:34;87113.20;;;21.50
74536;BMP180;63013;51.104;-115.370;2023-05-10T04:51:00;87110.80;;;21.50
74536;BMP180;63013;51.104;-115.370;2023-05-10T04:53:28;87112.60;;;21.50
74536;BMP180;63013;51.104;-115.370;2023-05-10T04:55:55;87114.80;;;21.50
74536;BMP180;63013;51.104;-115.370;2023-05-10T04:58:22;87114.00;;;21.50
74536;BMP180;63013;51.104;-115.370;2023-05-10T05:00:49;87115.60;;;21.50
74536;BMP180;63013;51.104;-115.370;2023-05-10T05:03:24;87116.40;;;21.50
74536;BMP180;63013;51.104;-115.370;2023-05-10T05:05:52;87112.60;;;21.50
74536;BMP180;63013;51.104;-115.370;2023-05-10T05:08:18;87111.00;;;21.50
74536;BMP180;63013;51.104;-115.370;2023-05-10T05:10:45;87113.40;;;21.42
74536;BMP180;63013;51.104;-115.370;2023-05-10T05:13:13;87114.80;;;21.40
74536;BMP180;63013;51.104;-115.370;2023-05-10T05:15:40;87116.00;;;21.40
74536;BMP180;63013;51.104;-115.370;2023-05-10T05:18:07;87111.40;;;21.40
74536;BMP180;63013;51.104;-115.370;2023-05-10T05:20:35;87116.20;;;21.40
74536;BMP180;63013;51.104;-115.370;2023-05-10T05:23:02;87111.40;;;21.40
74536;BMP180;63013;51.104;-115.370;2023-05-10T05:25:29;87113.60;;;21.40
74536;BMP180;63013;51.104;-115.370;2023-05-10T05:27:55;87116.40;;;21.40
74536;BMP180;63013;51.104;-115.370;2023-05-10T05:30:22;87114.80;;;21.40
74536;BMP180;63013;51.104;-115.370;2023-05-10T05:32:49;87118.20;;;21.36
74536;BMP180;63013;51.104;-115.370;2023-05-10T05:35:16;87118.00;;;21.30
74536;BMP180;63013;51.104;-115.370;2023-05-10T05:37:43;87120.00;;;21.30
74536;BMP180;63013;51.104;-115.370;2023-05-10T05:40:13;87119.40;;;21.30
74536;BMP180;63013;51.104;-115.370;2023-05-10T05:42:40;87119.00;;;21.30
74536;BMP180;63013;51.104;-115.370;2023-05-10T05:45:08;87115.80;;;21.30
74536;BMP180;63013;51.104;-115.370;2023-05-10T05:47:35;87116.60;;;21.30
74536;BMP180;63013;51.104;-115.370;2023-05-10T05:50:02;87116.00;;;21.30
74536;BMP180;63013;51.104;-115.370;2023-05-10T05:52:31;87111.80;;;21.30
74536;BMP180;63013;51.104;-115.370;2023-05-10T05:54:58;87110.80;;;21.30
74536;BMP180;63013;51.104;-115.370;2023-05-10T05:57:25;87115.40;;;21.24
74536;BMP180;63013;51.104;-115.370;2023-05-10T05:59:53;87116.00;;;21.24
74536;BMP180;63013;51.104;-115.370;2023-05-10T06:02:20;87117.00;;;21.22
74536;BMP180;63013;51.104;-115.370;2023-05-10T06:04:47;87118.80;;;21.20
74536;BMP180;63013;51.104;-115.370;2023-05-10T06:07:14;87115.00;;;21.20
74536;BMP180;63013;51.104;-115.370;2023-05-10T06:09:41;87116.20;;;21.20
74536;BMP180;63013;51.104;-115.370;2023-05-10T06:12:07;87114.40;;;21.20
74536;BMP180;63013;51.104;-115.370;2023-05-10T06:14:35;87116.00;;;21.20
74536;BMP180;63013;51.104;-115.370;2023-05-10T06:17:02;87120.20;;;21.18
74536;BMP180;63013;51.104;-115.370;2023-05-10T06:19:31;87118.40;;;21.10
74536;BMP180;63013;51.104;-115.370;2023-05-10T06:21:58;87120.60;;;21.10
74536;BMP180;63013;51.104;-115.370;2023-05-10T06:24:25;87119.80;;;21.10
74536;BMP180;63013;51.104;-115.370;2023-05-10T06:26:53;87120.80;;;21.10
74536;BMP180;63013;51.104;-115.370;2023-05-10T06:29:20;87119.60;;;21.10
74536;BMP180;63013;51.104;-115.370;2023-05-10T06:31:47;87116.00;;;21.10
74536;BMP180;63013;51.104;-115.370;2023-05-10T06:34:14;87115.20;;;21.10
74536;BMP180;63013;51.104;-115.370;2023-05-10T06:36:41;87119.20;;;21.10
74536;BMP180;63013;51.104;-115.370;2023-05-10T06:39:08;87121.00;;;21.06
74536;BMP180;63013;51.104;-115.370;2023-05-10T06:41:35;87121.00;;;21.00
74536;BMP180;63013;51.104;-115.370;2023-05-10T06:44:02;87115.00;;;21.00
74536;BMP180;63013;51.104;-115.370;2023-05-10T06:46:30;87116.20;;;21.00
74536;BMP180;63013;51.104;-115.370;2023-05-10T06:48:57;87119.00;;;21.00
74536;BMP180;63013;51.104;-115.370;2023-05-10T06:51:24;87121.20;;;21.00
74536;BMP180;63013;51.104;-115.370;2023-05-10T06:53:52;87119.00;;;21.00
74536;BMP180;63013;51.104;-115.370;2023-05-10T06:56:19;87126.60;;;21.00
74536;BMP180;63013;51.104;-115.370;2023-05-10T06:58:48;87130.20;;;20.98
74536;BMP180;63013;51.104;-115.370;2023-05-10T07:01:15;87128.60;;;20.98
74536;BMP180;63013;51.104;-115.370;2023-05-10T07:03:42;87129.40;;;20.90
74536;BMP180;63013;51.104;-115.370;2023-05-10T07:06:09;87128.20;;;20.90
74536;BMP180;63013;51.104;-115.370;2023-05-10T07:08:36;87130.60;;;20.90
74536;BMP180;63013;51.104;-115.370;2023-05-10T07:11:04;87128.80;;;20.90
74536;BMP180;63013;51.104;-115.370;2023-05-10T07:13:34;87128.40;;;20.90
74536;BMP180;63013;51.104;-115.370;2023-05-10T07:16:01;87127.60;;;20.90
74536;BMP180;63013;51.104;-115.370;2023-05-10T07:18:28;87125.00;;;20.90
74536;BMP180;63013;51.104;-115.370;2023-05-10T07:20:57;87127.40;;;20.88
74536;BMP180;63013;51.104;-115.370;2023-05-10T07:23:24;87126.20;;;20.86
74536;BMP180;63013;51.104;-115.370;2023-05-10T07:25:51;87129.80;;;20.82
74536;BMP180;63013;51.104;-115.370;2023-05-10T07:28:19;87128.00;;;20.80
74536;BMP180;63013;51.104;-115.370;2023-05-10T07:30:46;87126.60;;;20.80
74536;BMP180;63013;51.104;-115.370;2023-05-10T07:33:14;87124.00;;;20.80
74536;BMP180;63013;51.104;-115.370;2023-05-10T07:35:42;87125.60;;;20.80
74536;BMP180;63013;51.104;-115.370;2023-05-10T07:38:09;87122.60;;;20.80
74536;BMP180;63013;51.104;-115.370;2023-05-10T07:40:38;87122.60;;;20.80
74536;BMP180;63013;51.104;-115.370;2023-05-10T07:43:05;87128.80;;;20.80
74536;BMP180;63013;51.104;-115.370;2023-05-10T07:45:34;87124.00;;;20.76
74536;BMP180;63013;51.104;-115.370;2023-05-10T07:48:01;87123.60;;;20.70
74536;BMP180;63013;51.104;-115.370;2023-05-10T07:50:28;87122.20;;;20.70
74536;BMP180;63013;51.104;-115.370;2023-05-10T07:52:55;87117.20;;;20.70
74536;BMP180;63013;51.104;-115.370;2023-05-10T07:55:23;87120.80;;;20.70
74536;BMP180;63013;51.104;-115.370;2023-05-10T07:57:50;87117.60;;;20.70
74536;BMP180;63013;51.104;-115.370;2023-05-10T08:00:20;87118.00;;;20.70
74536;BMP180;63013;51.104;-115.370;2023-05-10T08:02:48;87122.60;;;20.70
74536;BMP180;63013;51.104;-115.370;2023-05-10T08:05:15;87125.00;;;20.60
74536;BMP180;63013;51.104;-115.370;2023-05-10T08:07:42;87123.80;;;20.60
74536;BMP180;63013;51.104;-115.370;2023-05-10T08:10:10;87125.60;;;20.60
74536;BMP180;63013;51.104;-115.370;2023-05-10T08:12:41;87128.80;;;20.60
74536;BMP180;63013;51.104;-115.370;2023-05-10T08:15:09;87126.00;;;20.60
74536;BMP180;63013;51.104;-115.370;2023-05-10T08:17:36;87127.00;;;20.60
74536;BMP180;63013;51.104;-115.370;2023-05-10T08:20:03;87130.20;;;20.60
74536;BMP180;63013;51.104;-115.370;2023-05-10T08:22:31;87127.60;;;20.60
74536;BMP180;63013;51.104;-115.370;2023-05-10T08:24:58;87129.80;;;20.56
74536;BMP180;63013;51.104;-115.370;2023-05-10T08:27:25;87132.20;;;20.52
74536;BMP180;63013;51.104;-115.370;2023-05-10T08:29:52;87128.80;;;20.50
74536;BMP180;63013;51.104;-115.370;2023-05-10T08:32:19;87129.80;;;20.50
74536;BMP180;63013;51.104;-115.370;2023-05-10T08:34:46;87132.40;;;20.50
74536;BMP180;63013;51.104;-115.370;2023-05-10T08:37:14;87130.40;;;20.50
74536;BMP180;63013;51.104;-115.370;2023-05-10T08:39:41;87131.60;;;20.50
74536;BMP180;63013;51.104;-115.370;2023-05-10T08:42:09;87128.40;;;20.50
74536;BMP180;63013;51.104;-115.370;2023-05-10T08:44:37;87129.40;;;20.44
74536;BMP180;63013;51.104;-115.370;2023-05-10T08:47:08;87127.40;;;20.40
74536;BMP180;63013;51.104;-115.370;2023-05-10T08:49:37;87133.80;;;20.40
74536;BMP180;63013;51.104;-115.370;2023-05-10T08:52:05;87131.00;;;20.40
74536;BMP180;63013;51.104;-115.370;2023-05-10T08:54:34;87126.80;;;20.40
74536;BMP180;63013;51.104;-115.370;2023-05-10T08:57:01;87129.40;;;20.40
74536;BMP180;63013;51.104;-115.370;2023-05-10T08:59:29;87127.40;;;20.40
74536;BMP180;63013;51.104;-115.370;2023-05-10T09:01:58;87130.60;;;20.40
74536;BMP180;63013;51.104;-115.370;2023-05-10T09:04:26;87130.20;;;20.40
74536;BMP180;63013;51.104;-115.370;2023-05-10T09:06:54;87130.60;;;20.36
74536;BMP180;63013;51.104;-115.370;2023-05-10T09:09:22;87134.00;;;20.30
74536;BMP180;63013;51.104;-115.370;2023-05-10T09:11:51;87127.40;;;20.30
74536;BMP180;63013;51.104;-115.370;2023-05-10T09:14:20;87129.60;;;20.30
74536;BMP180;63013;51.104;-115.370;2023-05-10T09:16:47;87127.40;;;20.30
74536;BMP180;63013;51.104;-115.370;2023-05-10T09:19:14;87126.80;;;20.30
74536;BMP180;63013;51.104;-115.370;2023-05-10T09:21:41;87126.60;;;20.30
74536;BMP180;63013;51.104;-115.370;2023-05-10T09:24:09;87129.40;;;20.30
74536;BMP180;63013;51.104;-115.370;2023-05-10T09:26:46;87128.80;;;20.30
74536;BMP180;63013;51.104;-115.370;2023-05-10T09:29:16;87126.60;;;20.30
74536;BMP180;63013;51.104;-115.370;2023-05-10T09:31:51;87129.20;;;20.30
74536;BMP180;63013;51.104;-115.370;2023-05-10T09:34:30;87128.60;;;20.30
74536;BMP180;63013;51.104;-115.370;2023-05-10T09:37:02;87130.40;;;20.30
74536;BMP180;63013;51.104;-115.370;2023-05-10T09:39:37;87128.40;;;20.30
74536;BMP180;63013;51.104;-115.370;2023-05-10T09:42:09;87131.80;;;20.30
74536;BMP180;63013;51.104;-115.370;2023-05-10T09:44:36;87134.20;;;20.30
74536;BMP180;63013;51.104;-115.370;2023-05-10T09:47:04;87134.60;;;20.30
74536;BMP180;63013;51.104;-115.370;2023-05-10T09:49:31;87129.80;;;20.30
74536;BMP180;63013;51.104;-115.370;2023-05-10T09:52:07;87130.40;;;20.30
74536;BMP180;63013;51.104;-115.370;2023-05-10T09:54:34;87130.00;;;20.30
74536;BMP180;63013;51.104;-115.370;2023-05-10T09:57:02;87130.20;;;20.30
74536;BMP180;63013;51.104;-115.370;2023-05-10T09:59:33;87126.80;;;20.24
74536;BMP180;63013;51.104;-115.370;2023-05-10T10:02:01;87125.00;;;20.24
74536;BMP180;63013;51.104;-115.370;2023-05-10T10:04:29;87125.20;;;20.22
74536;BMP180;63013;51.104;-115.370;2023-05-10T10:07:01;87126.60;;;20.20
74536;BMP180;63013;51.104;-115.370;2023-05-10T10:09:29;87124.80;;;20.20
74536;BMP180;63013;51.104;-115.370;2023-05-10T10:11:57;87125.60;;;20.20
74536;BMP180;63013;51.104;-115.370;2023-05-10T10:14:24;87123.80;;;20.20
74536;BMP180;63013;51.104;-115.370;2023-05-10T10:16:53;87125.60;;;20.20
74536;BMP180;63013;51.104;-115.370;2023-05-10T10:19:21;87125.20;;;20.20
74536;BMP180;63013;51.104;-115.370;2023-05-10T10:21:50;87128.80;;;20.20
74536;BMP180;63013;51.104;-115.370;2023-05-10T10:24:17;87128.60;;;20.20
74536;BMP180;63013;51.104;-115.370;2023-05-10T10:26:45;87129.00;;;20.20
74536;BMP180;63013;51.104;-115.370;2023-05-10T10:29:38;87126.80;;;20.20
74536;BMP180;63013;51.104;-115.370;2023-05-10T10:32:38;87132.00;;;20.20
74536;BMP180;63013;51.104;-115.370;2023-05-10T10:35:09;87129.80;;;20.12
74536;BMP180;63013;51.104;-115.370;2023-05-10T10:37:48;87128.60;;;20.10
74536;BMP180;63013;51.104;-115.370;2023-05-10T10:40:33;87128.80;;;20.10
74536;BMP180;63013;51.104;-115.370;2023-05-10T10:43:24;87128.00;;;20.10
74536;BMP180;63013;51.104;-115.370;2023-05-10T10:46:18;87129.60;;;20.10
74536;BMP180;63013;51.104;-115.370;2023-05-10T10:49:09;87129.80;;;20.10
74536;BMP180;63013;51.104;-115.370;2023-05-10T10:51:40;87135.20;;;20.10
74536;BMP180;63013;51.104;-115.370;2023-05-10T10:54:32;87136.60;;;20.10
74536;BMP180;63013;51.104;-115.370;2023-05-10T10:57:14;87136.00;;;20.10
74536;BMP180;63013;51.104;-115.370;2023-05-10T10:59:44;87144.80;;;20.10
74536;BMP180;63013;51.104;-115.370;2023-05-10T11:02:43;87143.60;;;20.10
74536;BMP180;63013;51.104;-115.370;2023-05-10T11:05:34;87143.60;;;20.10
74536;BMP180;63013;51.104;-115.370;2023-05-10T11:08:13;87141.80;;;20.10
74536;BMP180;63013;51.104;-115.370;2023-05-10T11:16:24;87148.40;;;20.00
74536;BMP180;63013;51.104;-115.370;2023-05-10T11:19:05;87151.40;;;20.00
74536;BMP180;63013;51.104;-115.370;2023-05-10T11:21:50;87154.00;;;20.00
74536;BMP180;63013;51.104;-115.370;2023-05-10T11:24:23;87153.20;;;20.00
74536;BMP180;63013;51.104;-115.370;2023-05-10T11:26:54;87155.60;;;20.00
74536;BMP180;63013;51.104;-115.370;2023-05-10T11:29:22;87158.20;;;20.00
74536;BMP180;63013;51.104;-115.370;2023-05-10T11:31:50;87156.40;;;20.00
74536;BMP180;63013;51.104;-115.370;2023-05-10T11:34:25;87158.00;;;20.00
74536;BMP180;63013;51.104;-115.370;2023-05-10T11:36:54;87159.60;;;20.00
74536;BMP180;63013;51.104;-115.370;2023-05-10T11:39:30;87160.40;;;20.00
74536;BMP180;63013;51.104;-115.370;2023-05-10T11:41:58;87161.20;;;20.00
74536;BMP180;63013;51.104;-115.370;2023-05-10T11:44:33;87164.00;;;20.00
74536;BMP180;63013;51.104;-115.370;2023-05-10T11:47:02;87163.40;;;20.00
74536;BMP180;63013;51.104;-115.370;2023-05-10T11:49:30;87161.40;;;20.00
74536;BMP180;63013;51.104;-115.370;2023-05-10T11:52:08;87162.80;;;20.00
74536;BMP180;63013;51.104;-115.370;2023-05-10T11:54:35;87164.80;;;19.94
74536;BMP180;63013;51.104;-115.370;2023-05-10T11:57:03;87170.00;;;19.90
74536;BMP180;63013;51.104;-115.370;2023-05-10T11:59:30;87166.80;;;19.90
74536;BMP180;63013;51.104;-115.370;2023-05-10T12:01:57;87164.60;;;19.90
74536;BMP180;63013;51.104;-115.370;2023-05-10T12:04:24;87173.20;;;19.90
74536;BMP180;63013;51.104;-115.370;2023-05-10T12:06:52;87171.60;;;19.90
74536;BMP180;63013;51.104;-115.370;2023-05-10T12:09:19;87174.60;;;19.90
74536;BMP180;63013;51.104;-115.370;2023-05-10T12:11:46;87172.60;;;19.90
74536;BMP180;63013;51.104;-115.370;2023-05-10T12:14:13;87172.20;;;19.90
74536;BMP180;63013;51.104;-115.370;2023-05-10T12:16:43;87173.00;;;19.90
74536;BMP180;63013;51.104;-115.370;2023-05-10T12:19:10;87171.20;;;19.90
74536;BMP180;63013;51.104;-115.370;2023-05-10T12:21:37;87177.00;;;19.90
74536;BMP180;63013;51.104;-115.370;2023-05-10T12:24:05;87174.20;;;19.90
74536;BMP180;63013;51.104;-115.370;2023-05-10T12:26:32;87172.00;;;19.90
74536;BMP180;63013;51.104;-115.370;2023-05-10T12:29:18;87175.80;;;19.90
74536;BMP180;63013;51.104;-115.370;2023-05-10T12:31:58;87179.60;;;19.90
74536;BMP180;63013;51.104;-115.370;2023-05-10T12:34:33;87174.40;;;19.90
74536;BMP180;63013;51.104;-115.370;2023-05-10T12:37:03;87177.00;;;19.90
74536;BMP180;63013;51.104;-115.370;2023-05-10T12:39:45;87177.00;;;19.90
74536;BMP180;63013;51.104;-115.370;2023-05-10T12:42:12;87175.60;;;19.90
74536;BMP180;63013;51.104;-115.370;2023-05-10T12:44:40;87172.40;;;19.86
74536;BMP180;63013;51.104;-115.370;2023-05-10T12:47:07;87171.60;;;19.88
74536;BMP180;63013;51.104;-115.370;2023-05-10T12:49:34;87170.80;;;19.90
74536;BMP180;63013;51.104;-115.370;2023-05-10T12:52:01;87173.20;;;19.90
74536;BMP180;63013;51.104;-115.370;2023-05-10T12:54:28;87170.60;;;19.90
74536;BMP180;63013;51.104;-115.370;2023-05-10T12:56:55;87171.40;;;19.90
74536;BMP180;63013;51.104;-115.370;2023-05-10T12:59:22;87169.20;;;19.90
74536;BMP180;63013;51.104;-115.370;2023-05-10T13:01:49;87172.00;;;19.90
74536;BMP180;63013;51.104;-115.370;2023-05-10T13:04:16;87171.80;;;19.90
74536;BMP180;63013;51.104;-115.370;2023-05-10T13:06:43;87168.00;;;19.88
74536;BMP180;63013;51.104;-115.370;2023-05-10T13:09:10;87171.20;;;19.88
74536;BMP180;63013;51.104;-115.370;2023-05-10T13:11:37;87172.40;;;19.80
74536;BMP180;63013;51.104;-115.370;2023-05-10T13:14:04;87173.60;;;19.80
74536;BMP180;63013;51.104;-115.370;2023-05-10T13:16:32;87174.80;;;19.80
74536;BMP180;63013;51.104;-115.370;2023-05-10T13:18:59;87176.40;;;19.80
74536;BMP180;63013;51.104;-115.370;2023-05-10T13:21:26;87179.40;;;19.80
74536;BMP180;63013;51.104;-115.370;2023-05-10T13:23:54;87183.40;;;19.80
74536;BMP180;63013;51.104;-115.370;2023-05-10T13:26:22;87184.40;;;19.80
74536;BMP180;63013;51.104;-115.370;2023-05-10T13:28:48;87190.60;;;19.80
74536;BMP180;63013;51.104;-115.370;2023-05-10T13:31:17;87187.40;;;19.80
74536;BMP180;63013;51.104;-115.370;2023-05-10T13:33:45;87188.60;;;19.80
74536;BMP180;63013;51.104;-115.370;2023-05-10T13:36:12;87187.40;;;19.80
74536;BMP180;63013;51.104;-115.370;2023-05-10T13:38:39;87189.80;;;19.80
74536;BMP180;63013;51.104;-115.370;2023-05-10T13:41:06;87193.80;;;19.80
74536;BMP180;63013;51.104;-115.370;2023-05-10T13:43:33;87199.00;;;19.80
74536;BMP180;63013;51.104;-115.370;2023-05-10T13:46:00;87200.00;;;19.80
74536;BMP180;63013;51.104;-115.370;2023-05-10T13:48:27;87197.20;;;19.80
74536;BMP180;63013;51.104;-115.370;2023-05-10T13:50:54;87195.60;;;19.80
74536;BMP180;63013;51.104;-115.370;2023-05-10T13:53:21;87195.80;;;19.80
74536;BMP180;63013;51.104;-115.370;2023-05-10T13:55:49;87199.00;;;19.80
74536;BMP180;63013;51.104;-115.370;2023-05-10T13:58:15;87200.00;;;19.80
74536;BMP180;63013;51.104;-115.370;2023-05-10T14:00:43;87198.40;;;19.80
74536;BMP180;63013;51.104;-115.370;2023-05-10T14:03:10;87199.40;;;19.80
74536;BMP180;63013;51.104;-115.370;2023-05-10T14:05:37;87200.40;;;19.80
74536;BMP180;63013;51.104;-115.370;2023-05-10T14:08:04;87203.20;;;19.80